Terminal Aerodrome Forecast
Issued by NWS Blacksburg, VA

Home | Current Version | Previous Version | Text Only | Print | Product List | Glossary On
Versions: 1 2 3 4 5 6 7 8 9 10 11 12 13 14 15 16 17 18 19
000
FTUS41 KRNK 281137
TAFROA
TAF
KROA 281137Z 2812/2912 VRB03KT P6SM SCT100
     FM281700 21004KT P6SM BKN060
      TEMPO 2819/2821 2SM TSRA OVC025CB
     FM282100 19006KT P6SM SHRA VCTS BKN060CB
     FM290400 00000KT P6SM BKN070=

USA.gov is the U.S. government's official web portal to all federal, state and local government web resources and services.